Etusivu
METAR-TAF:

METAR-TAF

Lentoasemat :

Joensuun lentoasema

Joensuu, Suomi

Leveyspiiri: 62-40N, Pituuspiiri: 029-38E, korkeus merenpinnasta: 119 m

Tämänhetkinen sää

Tämä raportti tehtiin 22 minuuttia sitten, kello 20.20 UTC
tyyntä
Lämpötila 10°C
Kosteus 93%
Ilmanpaine 1013 hPa
Näkyvyys 10 km tai enemmän
ei pilviä alle 1500 m:ssä eikä cumulonimbus-pilviä

METAR: EFJO 152020Z 00000KT CAVOK 10/09 Q1013

Aika: 23:42 (20:42 UTC)

Sääennuste

Tämä raportti tehtiin 3 tuntia ja 21 minuuttia sitten, kello 17.21 UTC
Ennuste voimassa 15. päivästä klo 18 UTC - 15. päivään klo 23 UTC
Tuuli 4 kn koillisesta
Näkyvyys 10 km tai enemmän
Muutamia pilviä 3000 ft:n korkeudessa

TAF: EFJO 151721Z 1518/1523 04004KT 9999 FEW030

Säähavainnot ja -ennusteet yli 4000 lentoasemalta (METAR- ja TAF-raportit).

Käytössä olevat sääasemat on merkitty karttaan keltaisilla ja punaisilla pisteillä.

Aseta hiiri pisteen päälle nähdäksesi sääaseman nimen.

Klikkaa sitten nähdäksesi säähavainnot ja -ennusteet.

Kartan vaihtaminen: klikkaa mustalla rastilla varustettuja vihreitä pisteitä, niin voit zoomata sisään; viivalla varustettua vihreää pistettä, niin voit zoomata ulos tai vihreitä nuolia, niin pääset viereisille kartoille.


METAR-TAF: